Time;durP1;ratioP1;P1;durP2;ratioP2;P2;SDS_P1;SDS_P2;PMS_P1;PMS_P2;Temp;Humidity;BMP_temperature;BMP_pressure;BME280_temperature;BME280_humidity;BME280_pressure;Samples;Min_cycle;Max_cycle;Signal;HPM_P1;HPM_P2
2021/07/11 08:44:09;;;;;;;2.53;2.33;;;19.40;99.90;;;;;;4897537;28;21018;-92
2021/07/11 08:46:46;;;;;;;2.07;1.97;;;19.40;99.90;;;;;;4899448;29;20537;-92
2021/07/11 09:01:58;;;;;;;3.90;3.60;;;20.20;99.90;;;;;;4896360;29;20516;-89
2021/07/11 09:04:49;;;;;;;3.53;2.50;;;20.60;99.90;;;;;;4893567;29;20457;-90
2021/07/11 09:11:09;;;;;;;2.67;2.47;;;20.20;99.90;;;;;;4894463;29;20547;-91
2021/07/11 12:27:58;;;;;;;2.87;1.97;;;24.40;93.50;;;;;;859944;27;21389;-90
2021/07/11 12:30:46;;;;;;;2.27;2.17;;;22.80;96.70;;;;;;4904982;29;20500;-91
2021/07/11 12:34:00;;;;;;;1.83;1.73;;;23.20;99.10;;;;;;4890397;29;20542;-91
2021/07/11 12:39:51;;;;;;;2.67;2.47;;;24.80;97.10;;;;;;4881820;29;20453;-91
2021/07/11 12:42:20;;;;;;;2.40;2.30;;;25.20;99.80;;;;;;4889738;29;20442;-88
2021/07/11 12:44:50;;;;;;;2.90;2.60;;;25.50;99.90;;;;;;4891905;29;20472;-89
2021/07/11 12:47:36;;;;;;;2.10;2.00;;;26.00;98.70;;;;;;4888549;29;20482;-89
2021/07/11 12:50:11;;;;;;;2.70;2.50;;;25.20;98.70;;;;;;4889873;29;20469;-89
2021/07/11 12:52:39;;;;;;;2.90;2.23;;;24.20;98.70;;;;;;4888350;29;20607;-89
2021/07/11 12:55:14;;;;;;;2.30;2.20;;;23.60;99.90;;;;;;4887489;29;20465;-90
2021/07/11 12:57:47;;;;;;;2.50;2.20;;;23.40;99.90;;;;;;4887908;29;20453;-89
2021/07/11 13:00:48;;;;;;;4.00;2.47;;;23.40;99.50;;;;;;4889284;29;20539;-89
2021/07/11 13:03:35;;;;;;;2.40;2.00;;;23.60;98.00;;;;;;4894338;29;20453;-91
2021/07/11 13:06:17;;;;;;;2.30;2.20;;;23.70;98.20;;;;;;4894709;29;20492;-91
2021/07/11 13:08:49;;;;;;;2.17;2.07;;;23.70;99.40;;;;;;4888959;29;20461;-91
2021/07/11 13:11:30;;;;;;;2.60;2.40;;;23.50;99.90;;;;;;4888408;29;20920;-92
2021/07/11 13:14:00;;;;;;;2.73;2.53;;;23.30;99.90;;;;;;4888893;29;20950;-92
2021/07/11 13:16:38;;;;;;;2.80;2.60;;;23.40;99.90;;;;;;4892784;29;20452;-91
2021/07/11 13:19:20;;;;;;;3.07;2.87;;;23.40;99.90;;;;;;4890210;29;20827;-92
2021/07/11 13:22:00;;;;;;;2.30;2.20;;;23.60;99.90;;;;;;4890795;29;20452;-92
2021/07/11 13:24:51;;;;;;;4.17;2.27;;;24.00;99.50;;;;;;4888517;29;20464;-91
2021/07/11 13:30:29;;;;;;;2.50;2.30;;;25.90;97.70;;;;;;4883914;29;20540;-92
2021/07/11 13:33:04;;;;;;;3.53;2.13;;;27.20;96.20;;;;;;4891653;29;20833;-92
2021/07/11 13:35:49;;;;;;;4.00;1.90;;;27.00;96.40;;;;;;4894487;29;20482;-92
2021/07/11 13:41:32;;;;;;;2.13;1.80;;;28.40;91.30;;;;;;4889899;29;20472;-92
2021/07/11 13:43:59;;;;;;;2.43;2.33;;;30.50;85.10;;;;;;4889259;29;20464;-91
2021/07/11 13:46:27;;;;;;;1.90;1.80;;;28.90;89.20;;;;;;4891591;29;20457;-92
2021/07/11 13:48:53;;;;;;;2.03;1.50;;;26.40;87.50;;;;;;4888786;29;20472;-92
2021/07/11 13:51:22;;;;;;;1.40;1.40;;;26.10;89.50;;;;;;4889204;29;20221;-91
2021/07/11 13:53:51;;;;;;;1.90;1.80;;;26.30;89.10;;;;;;4888498;29;21153;-91
2021/07/11 13:56:20;;;;;;;2.50;1.53;;;28.40;81.10;;;;;;4890693;29;20448;-92
2021/07/11 13:58:59;;;;;;;1.53;1.43;;;29.40;79.20;;;;;;4888073;29;20465;-92
2021/07/11 14:01:29;;;;;;;1.60;1.50;;;;;;;;;;4887460;29;20448;-92
2021/07/11 14:03:58;;;;;;;1.93;1.30;;;31.30;61.40;;;;;;4890520;29;20809;-91
2021/07/11 14:06:29;;;;;;;1.70;1.60;;;29.60;69.10;;;;;;4889747;29;20492;-92
2021/07/11 14:09:11;;;;;;;1.60;1.50;;;29.90;65.30;;;;;;4886193;29;20448;-92
2021/07/11 14:14:36;;;;;;;2.57;2.10;;;27.00;75.80;;;;;;4887823;29;20461;-92
2021/07/11 14:17:02;;;;;;;3.03;2.20;;;27.80;76.00;;;;;;4888453;29;20850;-92
2021/07/11 14:19:33;;;;;;;2.57;2.37;;;24.70;85.40;;;;;;4888130;29;20445;-94
2021/07/11 14:22:21;;;;;;;2.33;2.13;;;23.60;90.10;;;;;;4888522;29;20464;-92
2021/07/11 14:25:01;;;;;;;2.03;1.93;;;23.40;91.40;;;;;;4887946;29;20484;-92
2021/07/11 14:27:53;;;;;;;1.70;1.60;;;25.50;90.60;;;;;;4897230;29;20459;-92
2021/07/11 14:30:25;;;;;;;1.50;1.40;;;31.00;73.90;;;;;;4889421;29;20568;-91
2021/07/11 14:32:57;;;;;;;1.90;1.80;;;34.90;59.50;;;;;;4888844;29;21343;-92
2021/07/11 14:35:23;;;;;;;1.60;1.50;;;31.50;59.40;;;;;;4889981;29;20461;-92
2021/07/11 14:37:53;;;;;;;1.70;1.60;;;32.20;59.80;;;;;;4902818;29;20544;-93
2021/07/11 14:40:21;;;;;;;2.20;2.10;;;29.00;65.50;;;;;;4886724;29;20475;-92
2021/07/11 14:42:51;;;;;;;2.10;2.00;;;28.40;70.80;;;;;;4886023;29;20548;-92
2021/07/11 14:45:20;;;;;;;2.20;2.10;;;26.10;79.30;;;;;;4887119;29;20490;-92
2021/07/11 14:47:50;;;;;;;1.80;1.70;;;25.70;80.20;;;;;;4886732;29;20941;-91
2021/07/11 14:50:34;;;;;;;;;;;;;;;;;;;;;
2021/07/11 14:53:09;;;;;;;1.43;1.30;;;32.00;62.90;;;;;;4891632;29;20452;-92
2021/07/11 14:55:38;;;;;;;1.90;1.40;;;34.30;52.90;;;;;;4881224;29;20452;-92
2021/07/11 14:58:04;;;;;;;1.90;1.10;;;31.70;54.90;;;;;;4886145;29;20465;-92
2021/07/11 15:00:52;;;;;;;1.50;1.40;;;30.30;59.10;;;;;;4884398;29;20468;-92
2021/07/11 15:03:32;;;;;;;1.20;1.20;;;30.60;60.70;;;;;;4889095;29;20735;-92
2021/07/11 15:05:58;;;;;;;1.67;1.57;;;30.70;58.40;;;;;;4901112;29;20457;-92
2021/07/11 15:08:26;;;;;;;1.30;1.30;;;28.00;63.40;;;;;;4889623;29;20480;-92
2021/07/11 15:10:57;;;;;;;1.50;1.40;;;25.30;72.20;;;;;;4902631;29;20969;-91
2021/07/11 15:13:35;;;;;;;1.97;1.77;;;24.50;76.90;;;;;;4884671;29;20518;-92
2021/07/11 15:16:03;;;;;;;1.97;1.87;;;24.60;84.90;;;;;;4888185;29;20457;-92
2021/07/11 15:18:46;;;;;;;1.73;1.63;;;24.90;85.00;;;;;;4889549;29;20503;-92
2021/07/11 15:21:19;;;;;;;2.03;1.83;;;24.50;79.40;;;;;;4898805;29;20512;-92
2021/07/11 15:24:23;;;;;;;1.90;1.80;;;24.30;81.50;;;;;;4884723;29;20453;-91
2021/07/11 15:30:11;;;;;;;2.20;1.63;;;25.00;79.50;;;;;;4880192;29;20468;-92
2021/07/11 15:32:49;;;;;;;2.37;2.03;;;25.00;85.90;;;;;;4900669;29;20471;-92
2021/07/11 15:35:16;;;;;;;2.50;2.40;;;24.60;86.90;;;;;;4891951;29;20451;-93
2021/07/11 15:37:46;;;;;;;1.90;1.80;;;24.50;86.80;;;;;;4886793;29;20525;-92
2021/07/11 15:40:39;;;;;;;1.67;1.57;;;24.40;87.90;;;;;;4890512;29;20456;-92
2021/07/11 15:44:15;;;;;;;3.07;2.00;;;24.20;84.50;;;;;;4891138;29;20461;-92
2021/07/11 15:46:14;;;;;;;2.93;1.87;;;23.90;85.10;;;;;;4883620;29;20967;-92
2021/07/11 15:48:44;;;;;;;1.70;1.60;;;26.90;80.70;;;;;;4889069;29;21023;-91
2021/07/11 15:51:20;;;;;;;1.50;1.40;;;31.30;67.90;;;;;;4892645;29;20484;-91
2021/07/11 15:53:49;;;;;;;1.57;1.43;;;34.50;56.60;;;;;;4893509;29;20487;-91
2021/07/11 15:56:17;;;;;;;1.73;1.63;;;33.60;52.10;;;;;;4888551;29;20448;-90
2021/07/11 16:01:34;;;;;;;1.93;1.83;;;31.30;57.90;;;;;;4894304;29;20638;-90
2021/07/11 16:04:12;;;;;;;1.60;1.50;;;34.60;55.70;;;;;;4890238;29;20456;-89
2021/07/11 16:06:46;;;;;;;1.93;1.73;;;37.10;51.50;;;;;;4892871;29;20808;-89
2021/07/11 16:09:19;;;;;;;2.10;1.47;;;37.20;47.50;;;;;;4889297;29;20452;-89
2021/07/11 16:12:13;;;;;;;1.47;1.37;;;34.40;51.30;;;;;;4891518;29;20686;-89
2021/07/11 16:14:43;;;;;;;1.97;1.57;;;34.10;53.50;;;;;;4888173;29;20463;-89
2021/07/11 16:20:27;;;;;;;1.77;1.67;;;36.20;47.20;;;;;;4860962;29;20508;-89
2021/07/11 16:22:55;;;;;;;1.53;1.30;;;36.80;47.30;;;;;;4883266;29;20552;-89
2021/07/11 16:25:22;;;;;;;2.10;2.00;;;36.70;49.80;;;;;;4886214;29;20223;-89
2021/07/11 16:27:52;;;;;;;2.90;1.80;;;37.00;48.60;;;;;;4890503;29;20469;-89
2021/07/11 16:30:20;;;;;;;1.80;1.70;;;37.10;48.80;;;;;;4888691;29;20555;-89
2021/07/11 16:32:48;;;;;;;2.90;2.70;;;35.40;48.20;;;;;;4883977;29;20479;-90
2021/07/11 16:35:14;;;;;;;4.07;3.77;;;34.80;51.40;;;;;;4882304;29;20480;-90
2021/07/11 16:37:48;;;;;;;1.90;1.80;;;35.50;52.70;;;;;;4888860;29;20452;-89
2021/07/11 16:40:16;;;;;;;2.00;1.90;;;37.00;44.40;;;;;;4886786;29;20266;-90
2021/07/11 16:42:42;;;;;;;1.93;1.83;;;38.00;46.20;;;;;;4899939;29;20310;-89
2021/07/11 16:45:11;;;;;;;1.63;1.53;;;37.60;45.60;;;;;;4887758;29;20694;-90
2021/07/11 16:47:39;;;;;;;1.93;1.70;;;35.90;45.60;;;;;;4890396;29;20468;-90
2021/07/11 16:50:09;;;;;;;1.70;1.60;;;34.90;48.70;;;;;;4882969;29;20959;-90
2021/07/11 16:52:35;;;;;;;3.33;1.60;;;35.80;45.60;;;;;;4893222;29;20811;-91
2021/07/11 16:55:01;;;;;;;1.77;1.67;;;37.10;47.40;;;;;;4893015;29;20451;-91
2021/07/11 16:57:28;;;;;;;1.70;1.60;;;36.70;46.10;;;;;;4894227;29;20196;-91
2021/07/11 16:59:54;;;;;;;1.80;1.70;;;37.00;45.40;;;;;;4889086;29;20472;-91
2021/07/11 17:02:20;;;;;;;1.97;1.43;;;36.50;45.90;;;;;;4892636;29;20196;-90
2021/07/11 17:04:54;;;;;;;1.67;1.57;;;36.30;45.40;;;;;;4892577;29;20204;-92
2021/07/11 17:07:20;;;;;;;1.37;1.27;;;36.10;47.40;;;;;;4900831;29;20468;-90
2021/07/11 17:09:47;;;;;;;2.07;1.30;;;36.10;47.50;;;;;;4888235;29;20461;-90
2021/07/11 17:12:15;;;;;;;1.37;1.27;;;35.70;46.10;;;;;;4885110;29;20484;-91
2021/07/11 17:14:41;;;;;;;1.33;1.23;;;35.60;46.10;;;;;;4900743;29;20528;-91
2021/07/11 17:17:07;;;;;;;1.90;1.80;;;35.10;47.70;;;;;;4888334;29;20543;-91
2021/07/11 17:19:39;;;;;;;1.50;1.40;;;34.30;49.00;;;;;;4906598;29;20444;-90
2021/07/11 17:22:07;;;;;;;2.00;1.73;;;34.90;47.50;;;;;;4888071;29;20471;-89
2021/07/11 17:24:36;;;;;;;1.73;1.63;;;35.00;46.90;;;;;;4887207;29;20491;-90
2021/07/11 17:27:04;;;;;;;1.70;1.60;;;35.10;47.40;;;;;;4881694;29;20504;-90
2021/07/11 17:29:31;;;;;;;1.23;1.20;;;35.30;46.20;;;;;;4892292;29;20468;-90
2021/07/11 17:31:57;;;;;;;1.50;1.40;;;35.50;45.50;;;;;;4890326;29;20547;-90
2021/07/11 17:34:24;;;;;;;1.50;1.40;;;34.80;47.60;;;;;;4889075;29;20532;-90
2021/07/11 17:36:51;;;;;;;1.80;1.70;;;34.30;46.60;;;;;;4889945;29;20541;-89
2021/07/11 17:39:20;;;;;;;3.03;1.40;;;34.10;47.70;;;;;;4889095;29;20477;-90
2021/07/11 17:41:47;;;;;;;1.47;1.30;;;34.30;47.40;;;;;;4890674;29;20220;-90
2021/07/11 17:44:15;;;;;;;1.50;1.40;;;33.70;48.60;;;;;;4890235;29;20513;-90
2021/07/11 17:46:41;;;;;;;1.97;1.60;;;33.30;49.10;;;;;;4885589;29;20456;-89
2021/07/11 17:49:28;;;;;;;1.40;1.30;;;32.90;49.50;;;;;;4877120;29;21042;-89
2021/07/11 17:51:59;;;;;;;1.17;1.17;;;32.70;50.60;;;;;;4888174;29;20579;-89
2021/07/11 17:54:29;;;;;;;1.40;1.40;;;32.70;50.30;;;;;;4882964;29;20512;-90
2021/07/11 17:56:58;;;;;;;1.50;1.40;;;32.50;50.30;;;;;;4885543;29;20468;-89
2021/07/11 17:59:31;;;;;;;1.70;1.60;;;32.20;53.30;;;;;;4881569;29;20469;-89
2021/07/11 18:01:57;;;;;;;2.00;1.80;;;31.90;53.00;;;;;;4882976;29;20549;-89
2021/07/11 18:04:27;;;;;;;2.07;1.23;;;31.40;54.60;;;;;;4888905;29;21126;-90
2021/07/11 18:06:56;;;;;;;1.70;1.60;;;31.00;54.90;;;;;;4888495;29;20292;-89
2021/07/11 18:09:37;;;;;;;1.80;1.70;;;30.20;56.70;;;;;;4882675;29;20477;-89
2021/07/11 18:12:03;;;;;;;2.50;2.30;;;29.20;59.50;;;;;;4887841;29;20481;-90
2021/07/11 18:14:30;;;;;;;2.70;2.50;;;28.20;64.10;;;;;;4882337;29;20456;-90
2021/07/11 18:17:08;;;;;;;1.87;1.77;;;27.90;69.20;;;;;;4886435;29;20494;-89
2021/07/11 18:19:34;;;;;;;1.93;1.83;;;27.60;70.20;;;;;;4882658;29;20455;-89
2021/07/11 18:22:01;;;;;;;2.10;2.00;;;26.80;72.30;;;;;;4885852;29;20877;-90
2021/07/11 18:24:27;;;;;;;3.90;1.40;;;25.90;76.70;;;;;;4900990;29;20228;-89
2021/07/11 18:26:53;;;;;;;2.53;1.60;;;25.50;80.10;;;;;;4883201;29;20504;-90
2021/07/11 18:29:18;;;;;;;1.70;1.60;;;24.80;81.90;;;;;;4892026;29;20291;-91
2021/07/11 18:31:44;;;;;;;2.90;1.67;;;24.60;81.70;;;;;;4888389;29;20224;-91
2021/07/11 18:34:10;;;;;;;2.27;1.80;;;24.60;85.90;;;;;;4888742;29;20287;-91
2021/07/11 18:36:36;;;;;;;2.10;1.90;;;24.10;90.20;;;;;;4889015;29;20204;-91
2021/07/11 18:39:04;;;;;;;1.97;1.33;;;23.50;91.90;;;;;;4888758;29;20209;-90
2021/07/11 18:41:31;;;;;;;1.60;1.50;;;23.50;93.00;;;;;;4889784;29;20458;-91
2021/07/11 18:43:57;;;;;;;2.00;1.60;;;23.40;93.70;;;;;;4892115;29;20460;-91
2021/07/11 18:46:22;;;;;;;2.07;1.97;;;22.90;94.40;;;;;;4888004;29;20454;-91
2021/07/11 18:48:48;;;;;;;1.93;1.80;;;22.20;95.80;;;;;;4887921;29;20197;-90
2021/07/11 18:51:14;;;;;;;1.90;1.80;;;21.60;98.30;;;;;;4890445;29;20220;-91
2021/07/11 18:53:40;;;;;;;2.50;1.90;;;21.10;99.90;;;;;;4889574;29;20197;-91
2021/07/11 18:56:07;;;;;;;2.03;1.93;;;20.70;99.90;;;;;;4890210;29;20445;-90
2021/07/11 18:58:33;;;;;;;2.13;2.03;;;20.30;99.90;;;;;;4891949;29;20448;-90
2021/07/11 19:00:59;;;;;;;1.80;1.70;;;20.10;99.90;;;;;;4888911;29;20461;-90
2021/07/11 19:03:25;;;;;;;1.70;1.60;;;19.90;99.90;;;;;;4895085;29;20567;-91
2021/07/11 19:05:52;;;;;;;1.87;1.77;;;19.70;99.90;;;;;;4891917;29;20556;-90
2021/07/11 19:08:18;;;;;;;1.67;1.57;;;19.70;99.90;;;;;;4890329;29;21042;-91
2021/07/11 19:10:45;;;;;;;2.27;2.07;;;19.50;99.90;;;;;;4896456;29;20503;-91
2021/07/11 19:13:11;;;;;;;2.43;1.97;;;19.40;99.90;;;;;;4893735;29;20453;-90
2021/07/11 19:15:37;;;;;;;2.33;2.13;;;19.10;99.90;;;;;;4889723;29;20473;-90
2021/07/11 19:18:04;;;;;;;3.23;2.93;;;18.80;99.90;;;;;;4893846;29;20811;-90
2021/07/11 19:20:30;;;;;;;4.77;2.23;;;18.60;99.90;;;;;;4901229;29;20445;-90
2021/07/11 19:22:59;;;;;;;2.33;2.13;;;18.50;99.90;;;;;;4875635;29;20484;-92
2021/07/11 19:25:28;;;;;;;2.90;2.60;;;18.40;99.90;;;;;;4875271;29;20686;-89
2021/07/11 20:04:04;;;;;;;2.13;2.03;;;17.20;99.90;;;;;;4890374;29;20515;-94
2021/07/11 20:06:30;;;;;;;2.93;2.73;;;17.10;99.90;;;;;;4875215;29;21177;-94
2021/07/11 20:08:57;;;;;;;3.30;3.10;;;17.00;99.90;;;;;;4866300;29;20468;-93
2021/07/11 20:11:23;;;;;;;2.67;2.47;;;17.00;99.90;;;;;;4863696;29;20536;-94
2021/07/11 20:14:09;;;;;;;2.70;2.50;;;17.00;99.90;;;;;;4886644;29;20450;-95
2021/07/11 20:16:35;;;;;;;2.20;2.10;;;17.10;99.90;;;;;;4863074;29;20460;-93
2021/07/11 20:19:00;;;;;;;2.50;2.30;;;17.00;99.90;;;;;;4870113;29;20680;-95
2021/07/11 20:24:18;;;;;;;2.30;2.20;;;16.90;99.90;;;;;;4876146;29;20216;-94
2021/07/11 20:26:44;;;;;;;4.53;2.20;;;16.90;99.90;;;;;;4881056;29;20972;-94
2021/07/11 20:29:10;;;;;;;3.30;2.20;;;16.80;99.90;;;;;;4878037;29;20319;-93
2021/07/11 20:31:47;;;;;;;3.27;3.07;;;16.80;99.90;;;;;;4874983;29;20572;-93
2021/07/11 20:34:13;;;;;;;3.63;2.40;;;16.70;99.90;;;;;;4875074;29;20284;-94
2021/07/11 20:36:41;;;;;;;2.07;1.97;;;16.60;99.90;;;;;;4882356;29;20445;-95
